createdAt,value
2022-07-31T00:00:59.149Z,98247.09
2022-07-31T00:03:26.888Z,98254.40
2022-07-31T00:05:54.638Z,98248.36
2022-07-31T00:08:23.276Z,98249.05
2022-07-31T00:10:51.172Z,98246.73
2022-07-31T00:13:18.904Z,98244.30
2022-07-31T00:16:06.607Z,98242.20
2022-07-31T00:18:35.381Z,98243.18
2022-07-31T00:21:03.589Z,98242.37
2022-07-31T00:23:31.345Z,98246.63
2022-07-31T00:25:59.143Z,98247.65
2022-07-31T00:28:26.994Z,98250.06
2022-07-31T00:30:55.454Z,98250.41
2022-07-31T00:33:23.149Z,98257.30
2022-07-31T00:35:50.859Z,98259.73
2022-07-31T00:38:33.933Z,98259.28
2022-07-31T00:41:02.948Z,98258.41
2022-07-31T00:43:31.093Z,98255.64
2022-07-31T00:45:59.504Z,98254.30
2022-07-31T00:48:27.831Z,98251.95
2022-07-31T00:50:57.281Z,98249.30
2022-07-31T00:53:25.438Z,98254.59
2022-07-31T00:55:53.183Z,98246.02
2022-07-31T00:58:21.067Z,98247.77
2022-07-31T01:00:49.018Z,98243.48
2022-07-31T01:03:18.740Z,98243.92
2022-07-31T01:05:46.687Z,98243.16
2022-07-31T01:08:14.430Z,98245.34
2022-07-31T01:11:10.198Z,98238.80
2022-07-31T01:13:50.806Z,98235.12
2022-07-31T01:16:19.797Z,98235.55
2022-07-31T01:18:48.397Z,98237.77
2022-07-31T01:21:28.153Z,98233.65
2022-07-31T01:24:08.612Z,98231.58
2022-07-31T01:26:59.804Z,98231.95
2022-07-31T01:29:32.763Z,98229.27
2022-07-31T01:32:18.601Z,98229.63
2022-07-31T01:34:57.659Z,98226.79
2022-07-31T01:37:33.428Z,98225.55
2022-07-31T01:40:10.224Z,98227.69
2022-07-31T01:42:41.650Z,98233.55
2022-07-31T01:45:11.467Z,98230.27
2022-07-31T01:47:42.119Z,98235.23
2022-07-31T01:50:42.196Z,98225.98
2022-07-31T01:53:01.210Z,98225.17
2022-07-31T01:55:30.743Z,98230.45
2022-07-31T01:58:21.090Z,98223.69
2022-07-31T02:00:51.400Z,98230.24
2022-07-31T02:03:20.322Z,98233.14
2022-07-31T02:06:09.124Z,98233.33
2022-07-31T02:08:37.121Z,98231.55
2022-07-31T02:11:06.144Z,98228.39
2022-07-31T02:13:38.571Z,98225.41
2022-07-31T02:16:06.914Z,98227.79
2022-07-31T02:18:35.504Z,98227.42
2022-07-31T02:21:03.414Z,98231.25
2022-07-31T02:23:31.242Z,98229.86
2022-07-31T02:25:59.385Z,98231.35
2022-07-31T02:28:29.599Z,98227.34
2022-07-31T02:30:58.297Z,98225.45
2022-07-31T02:33:26.803Z,98224.64
2022-07-31T02:35:56.380Z,98221.71
2022-07-31T02:38:27.261Z,98221.85
2022-07-31T02:41:01.689Z,98216.16
2022-07-31T02:43:32.260Z,98215.25
2022-07-31T02:46:00.683Z,98210.95
2022-07-31T02:48:29.391Z,98210.85
2022-07-31T02:50:57.483Z,98216.09
2022-07-31T02:53:25.988Z,98215.30
2022-07-31T02:55:54.360Z,98216.69
2022-07-31T02:58:22.350Z,98215.63
2022-07-31T03:00:59.371Z,98212.56
2022-07-31T03:03:27.539Z,98207.46
2022-07-31T03:05:56.293Z,98208.83
2022-07-31T03:08:24.192Z,98210.06
2022-07-31T03:10:51.902Z,98204.02
2022-07-31T03:13:22.990Z,98208.09
2022-07-31T03:15:52.282Z,98202.10
2022-07-31T03:18:21.822Z,98205.80
2022-07-31T03:20:53.306Z,98201.98
2022-07-31T03:23:22.830Z,98206.08
2022-07-31T03:25:51.459Z,98200.50
2022-07-31T03:28:20.616Z,98201.00
2022-07-31T03:30:51.787Z,98195.80
2022-07-31T03:33:24.695Z,98198.52
2022-07-31T03:35:53.443Z,98195.41
2022-07-31T03:38:39.464Z,98195.15
2022-07-31T03:41:08.995Z,98186.14
2022-07-31T03:43:44.195Z,98190.27
2022-07-31T03:46:17.886Z,98188.69
2022-07-31T03:48:47.962Z,98191.09
2022-07-31T03:51:16.349Z,98192.84
2022-07-31T03:53:46.231Z,98194.09
2022-07-31T03:56:15.804Z,98192.00
2022-07-31T03:58:46.037Z,98194.02
2022-07-31T04:01:20.761Z,98195.94
2022-07-31T04:03:48.786Z,98197.83
2022-07-31T04:06:16.530Z,98197.48
2022-07-31T04:08:44.376Z,98199.39
2022-07-31T04:11:12.760Z,98197.15
2022-07-31T04:13:40.467Z,98193.20
2022-07-31T04:16:08.192Z,98191.93
2022-07-31T04:18:36.025Z,98197.53
2022-07-31T04:21:03.860Z,98204.23
2022-07-31T04:23:32.523Z,98203.87
2022-07-31T04:26:00.551Z,98202.13
2022-07-31T04:28:28.338Z,98198.75
2022-07-31T04:30:56.179Z,98192.98
2022-07-31T04:33:23.889Z,98192.48
2022-07-31T04:35:52.908Z,98191.45
2022-07-31T04:38:21.754Z,98192.42
2022-07-31T04:40:50.135Z,98192.35
2022-07-31T04:43:17.879Z,98193.05
2022-07-31T04:45:45.890Z,98194.86
2022-07-31T04:48:13.610Z,98189.05
2022-07-31T04:50:41.351Z,98193.34
2022-07-31T04:53:09.095Z,98189.39
2022-07-31T04:55:36.791Z,98189.59
2022-07-31T04:58:04.522Z,98191.77
2022-07-31T05:00:32.402Z,98194.88
2022-07-31T05:03:00.270Z,98192.47
2022-07-31T05:05:27.962Z,98190.74
2022-07-31T05:07:55.674Z,98185.94
2022-07-31T05:10:41.681Z,98185.96
2022-07-31T05:13:10.339Z,98194.79
2022-07-31T05:15:38.076Z,98201.11
2022-07-31T05:18:07.777Z,98207.62
2022-07-31T05:20:35.501Z,98211.17
2022-07-31T05:23:03.270Z,98209.77
2022-07-31T05:25:34.553Z,98210.80
2022-07-31T05:28:02.654Z,98202.00
2022-07-31T05:30:30.886Z,98201.27
2022-07-31T05:32:58.772Z,98207.02
2022-07-31T05:35:26.529Z,98205.90
2022-07-31T05:37:54.672Z,98208.29
2022-07-31T05:40:22.396Z,98213.11
2022-07-31T05:42:50.077Z,98212.09
2022-07-31T05:45:18.081Z,98210.20
2022-07-31T05:47:45.838Z,98208.30
2022-07-31T05:50:14.490Z,98208.89
2022-07-31T05:52:42.828Z,98214.94
2022-07-31T05:55:10.690Z,98220.43
2022-07-31T05:57:38.507Z,98219.52
2022-07-31T06:00:06.784Z,98225.44
2022-07-31T06:02:37.181Z,98211.96
2022-07-31T06:05:05.487Z,98222.10
2022-07-31T06:07:33.280Z,98219.48
2022-07-31T06:10:02.433Z,98217.02
2022-07-31T06:12:30.191Z,98213.33
2022-07-31T06:14:58.279Z,98215.70
2022-07-31T06:17:28.988Z,98222.61
2022-07-31T06:20:13.188Z,98227.25
2022-07-31T06:22:43.919Z,98226.73
2022-07-31T06:25:14.127Z,98224.34
2022-07-31T06:27:43.108Z,98228.63
2022-07-31T06:30:15.658Z,98227.10
2022-07-31T06:32:43.533Z,98226.23
2022-07-31T06:35:11.325Z,98228.27
2022-07-31T06:37:39.090Z,98225.72
2022-07-31T06:40:08.298Z,98234.15
2022-07-31T06:42:37.589Z,98230.98
2022-07-31T06:45:06.081Z,98233.23
2022-07-31T06:47:33.823Z,98234.78
2022-07-31T06:50:02.073Z,98234.05
2022-07-31T06:52:29.805Z,98235.83
2022-07-31T06:54:57.571Z,98237.58
2022-07-31T06:57:25.368Z,98240.07
2022-07-31T06:59:53.343Z,98238.20
2022-07-31T07:02:21.202Z,98240.14
2022-07-31T07:05:00.775Z,98241.67
2022-07-31T07:07:37.752Z,98237.66
2022-07-31T07:10:06.154Z,98235.20
2022-07-31T07:12:33.903Z,98232.82
2022-07-31T07:15:02.555Z,98236.60
2022-07-31T07:17:31.007Z,98232.60
2022-07-31T07:19:58.936Z,98234.23
2022-07-31T07:22:31.769Z,98237.86
2022-07-31T07:25:01.099Z,98229.65
2022-07-31T07:27:29.009Z,98230.80
2022-07-31T07:29:57.420Z,98231.79
2022-07-31T07:32:25.367Z,98229.79
2022-07-31T07:34:59.695Z,98231.65
2022-07-31T07:37:28.885Z,98234.36
2022-07-31T07:39:57.184Z,98243.40
2022-07-31T07:42:32.028Z,98237.99
2022-07-31T07:44:59.956Z,98243.41
2022-07-31T07:47:54.060Z,98240.40
2022-07-31T07:50:16.805Z,98242.76
2022-07-31T07:52:44.691Z,98242.85
2022-07-31T07:55:12.744Z,98241.85
2022-07-31T07:57:45.039Z,98244.42
2022-07-31T08:00:16.407Z,98249.40
2022-07-31T08:03:47.344Z,98249.16
2022-07-31T08:05:33.479Z,98245.10
2022-07-31T08:08:01.204Z,98245.02
2022-07-31T08:10:29.002Z,98246.60
2022-07-31T08:12:57.756Z,98249.66
2022-07-31T08:15:25.991Z,98252.43
2022-07-31T08:17:53.832Z,98255.77
2022-07-31T08:20:21.598Z,98253.61
2022-07-31T08:22:49.323Z,98254.86
2022-07-31T08:25:17.051Z,98257.92
2022-07-31T08:27:44.785Z,98259.21
2022-07-31T08:30:16.192Z,98258.04
2022-07-31T08:32:43.988Z,98260.06
2022-07-31T08:35:14.400Z,98261.27
2022-07-31T08:37:52.242Z,98259.61
2022-07-31T08:40:30.905Z,98257.07
2022-07-31T08:43:00.968Z,98250.33
2022-07-31T08:45:30.317Z,98251.91
2022-07-31T08:48:00.325Z,98254.09
2022-07-31T08:50:29.742Z,98255.84
2022-07-31T08:52:59.851Z,98254.80
2022-07-31T08:55:56.200Z,98256.09
2022-07-31T08:58:19.251Z,98261.27
2022-07-31T09:00:47.083Z,98262.69
2022-07-31T09:03:15.926Z,98261.44
2022-07-31T09:05:43.736Z,98260.60
2022-07-31T09:08:14.787Z,98259.38
2022-07-31T09:10:47.808Z,98264.13
2022-07-31T09:13:19.154Z,98260.79
2022-07-31T09:15:47.031Z,98257.15
2022-07-31T09:18:22.154Z,98255.53
2022-07-31T09:20:58.847Z,98258.35
2022-07-31T09:23:27.898Z,98255.61
2022-07-31T09:26:02.108Z,98249.91
2022-07-31T09:28:39.500Z,98249.33
2022-07-31T09:31:09.117Z,98253.70
2022-07-31T09:33:42.280Z,98262.86
2022-07-31T09:36:12.007Z,98255.49
2022-07-31T09:38:41.944Z,98264.55
2022-07-31T09:41:53.549Z,98271.77
2022-07-31T09:44:10.457Z,98281.96
2022-07-31T09:46:41.726Z,98287.10
2022-07-31T09:49:10.111Z,98282.01
2022-07-31T09:51:39.776Z,98282.26
2022-07-31T09:54:08.700Z,98283.11
2022-07-31T09:56:36.473Z,98278.73
2022-07-31T09:59:04.937Z,98283.40
2022-07-31T10:01:36.514Z,98287.70
2022-07-31T10:04:06.961Z,98288.77
2022-07-31T10:06:36.345Z,98289.66
2022-07-31T10:09:06.500Z,98291.80
2022-07-31T10:11:34.324Z,98297.23
2022-07-31T10:14:04.091Z,98296.69
2022-07-31T10:16:36.617Z,98298.98
2022-07-31T10:19:11.457Z,98300.96
2022-07-31T10:21:47.398Z,98297.27
2022-07-31T10:24:19.189Z,98300.45
2022-07-31T10:27:09.169Z,98297.66
2022-07-31T10:29:41.165Z,98303.36
2022-07-31T10:32:09.419Z,98307.29
2022-07-31T10:34:37.922Z,98307.51
2022-07-31T10:37:13.703Z,98308.54
2022-07-31T10:39:58.448Z,98311.67
2022-07-31T10:42:35.745Z,98316.04
2022-07-31T10:45:06.729Z,98320.94
2022-07-31T10:47:35.066Z,98321.56
2022-07-31T10:50:04.744Z,98320.27
2022-07-31T10:52:35.748Z,98312.91
2022-07-31T10:55:30.461Z,98310.33
2022-07-31T10:58:14.302Z,98313.04
2022-07-31T11:00:43.442Z,98309.34
2022-07-31T11:03:20.245Z,98305.48
2022-07-31T11:06:01.119Z,98304.66
2022-07-31T11:08:46.816Z,98309.82
2022-07-31T11:11:15.343Z,98305.12
2022-07-31T11:13:47.749Z,98320.01
2022-07-31T11:16:16.200Z,98320.84
2022-07-31T11:18:46.202Z,98327.17
2022-07-31T11:21:36.298Z,98329.66
2022-07-31T11:24:14.187Z,98327.84
2022-07-31T11:26:52.907Z,98327.63
2022-07-31T11:29:59.557Z,98327.58
2022-07-31T11:32:22.904Z,98331.10
2022-07-31T11:34:57.548Z,98323.83
2022-07-31T11:37:43.345Z,98328.19
2022-07-31T11:40:16.431Z,98326.96
2022-07-31T11:43:00.007Z,98328.81
2022-07-31T11:45:46.951Z,98336.11
2022-07-31T11:48:19.268Z,98336.07
2022-07-31T11:50:49.721Z,98341.52
2022-07-31T11:53:18.906Z,98341.50
2022-07-31T11:55:59.129Z,98338.61
2022-07-31T11:58:29.632Z,98345.92
2022-07-31T12:00:59.884Z,98348.44
2022-07-31T12:03:33.423Z,98347.70
2022-07-31T12:06:01.577Z,98353.86
2022-07-31T12:08:30.157Z,98356.58
2022-07-31T12:11:00.296Z,98359.35
2022-07-31T12:13:29.278Z,98358.55
2022-07-31T12:16:01.141Z,98357.84
2022-07-31T12:18:30.279Z,98358.29
2022-07-31T12:21:05.263Z,98358.95
2022-07-31T12:23:44.263Z,98358.50
2022-07-31T12:26:21.498Z,98369.66
2022-07-31T12:29:07.196Z,98368.71
2022-07-31T12:31:53.288Z,98379.79
2022-07-31T12:34:41.716Z,98384.42
2022-07-31T12:37:17.516Z,98381.73
2022-07-31T12:39:59.212Z,98376.29
2022-07-31T12:42:30.950Z,98378.23
2022-07-31T12:45:19.747Z,98377.53
2022-07-31T12:47:53.471Z,98377.82
2022-07-31T12:50:22.342Z,98379.80
2022-07-31T12:52:50.187Z,98383.90
2022-07-31T12:55:18.819Z,98384.04
2022-07-31T12:57:50.229Z,98390.88
2022-07-31T13:00:22.789Z,98390.16
2022-07-31T13:02:52.277Z,98385.98
2022-07-31T13:05:21.059Z,98385.31
2022-07-31T13:07:49.268Z,98386.86
2022-07-31T13:10:22.168Z,98381.59
2022-07-31T13:12:53.320Z,98378.96
2022-07-31T13:15:29.785Z,98390.35
2022-07-31T13:17:59.914Z,98392.08
2022-07-31T13:20:27.763Z,98388.79
2022-07-31T13:22:55.504Z,98385.42
2022-07-31T13:25:23.314Z,98380.92
2022-07-31T13:27:51.033Z,98383.04
2022-07-31T13:30:18.730Z,98380.13
2022-07-31T13:32:46.540Z,98384.38
2022-07-31T13:35:26.913Z,98381.63
2022-07-31T13:37:56.260Z,98386.89
2022-07-31T13:40:43.663Z,98389.21
2022-07-31T13:43:12.336Z,98392.41
2022-07-31T13:45:40.505Z,98394.55
2022-07-31T13:48:10.249Z,98398.73
2022-07-31T13:50:39.988Z,98398.89
2022-07-31T13:53:09.874Z,98399.02
2022-07-31T13:55:38.096Z,98398.48
2022-07-31T13:58:05.890Z,98397.11
2022-07-31T14:00:34.451Z,98398.21
2022-07-31T14:03:02.895Z,98394.65
2022-07-31T14:05:32.029Z,98388.12
2022-07-31T14:08:33.362Z,98395.83
2022-07-31T14:10:57.313Z,98390.92
2022-07-31T14:13:25.686Z,98398.58
2022-07-31T14:15:54.067Z,98395.48
2022-07-31T14:18:23.361Z,98394.98
2022-07-31T14:20:52.111Z,98393.52
2022-07-31T14:23:19.931Z,98388.09
2022-07-31T14:25:47.723Z,98397.34
2022-07-31T14:28:22.852Z,98400.23
2022-07-31T14:30:50.804Z,98401.77
2022-07-31T14:33:18.628Z,98407.33
2022-07-31T14:35:54.580Z,98405.75
2022-07-31T14:38:27.516Z,98406.67
2022-07-31T14:40:56.122Z,98406.86
2022-07-31T14:43:24.433Z,98409.72
2022-07-31T14:45:52.923Z,98419.45
2022-07-31T14:48:22.051Z,98419.71
2022-07-31T14:50:50.365Z,98419.73
2022-07-31T14:53:18.140Z,98419.73
2022-07-31T14:55:46.045Z,98419.05
2022-07-31T14:58:13.906Z,98421.20
2022-07-31T15:00:41.712Z,98418.63
2022-07-31T15:03:09.482Z,98416.96
2022-07-31T15:06:49.397Z,98415.30
2022-07-31T15:08:27.117Z,98424.42
2022-07-31T15:10:55.228Z,98424.73
2022-07-31T15:13:24.062Z,98424.67
2022-07-31T15:15:51.784Z,98432.45
2022-07-31T15:18:19.821Z,98428.20
2022-07-31T15:20:52.342Z,98424.84
2022-07-31T15:23:20.630Z,98423.44
2022-07-31T15:25:48.320Z,98427.38
2022-07-31T15:28:17.233Z,98428.52
2022-07-31T15:30:45.210Z,98424.49
2022-07-31T15:33:13.011Z,98429.80
2022-07-31T15:35:40.938Z,98426.83
2022-07-31T15:38:08.909Z,98427.02
2022-07-31T15:40:36.656Z,98426.02
2022-07-31T15:43:04.473Z,98426.72
2022-07-31T15:45:32.168Z,98429.50
2022-07-31T15:48:00.370Z,98425.89
2022-07-31T15:50:28.094Z,98427.65
2022-07-31T15:52:55.923Z,98435.42
2022-07-31T15:55:23.803Z,98429.73
2022-07-31T15:57:51.646Z,98431.33
2022-07-31T16:00:19.828Z,98430.96
2022-07-31T16:02:48.236Z,98432.95
2022-07-31T16:05:21.589Z,98435.59
2022-07-31T16:08:32.407Z,98434.91
2022-07-31T16:10:38.433Z,98439.95
2022-07-31T16:13:06.383Z,98440.33
2022-07-31T16:15:34.930Z,98442.83
2022-07-31T16:18:02.991Z,98442.58
2022-07-31T16:20:30.737Z,98437.73
2022-07-31T16:23:01.600Z,98437.02
2022-07-31T16:25:31.997Z,98435.45
2022-07-31T16:28:03.904Z,98437.80
2022-07-31T16:30:32.260Z,98441.02
2022-07-31T16:33:00.056Z,98440.31
2022-07-31T16:35:27.886Z,98446.85
2022-07-31T16:37:55.695Z,98449.25
2022-07-31T16:40:29.708Z,98450.92
2022-07-31T16:43:47.755Z,98454.14
2022-07-31T16:45:52.179Z,98448.56
2022-07-31T16:48:19.976Z,98451.66
2022-07-31T16:50:53.873Z,98455.12
2022-07-31T16:54:10.457Z,98454.24
2022-07-31T16:56:11.891Z,98460.55
2022-07-31T16:58:39.943Z,98462.36
2022-07-31T17:01:58.292Z,98463.76
2022-07-31T17:04:00.549Z,98466.12
2022-07-31T17:06:36.507Z,98463.92
2022-07-31T17:09:16.451Z,98461.80
2022-07-31T17:11:49.358Z,98462.20
2022-07-31T17:14:19.501Z,98457.37
2022-07-31T17:16:49.655Z,98458.25
2022-07-31T17:19:42.902Z,98464.80
2022-07-31T17:22:07.896Z,98465.50
2022-07-31T17:24:37.625Z,98463.59
2022-07-31T17:27:09.686Z,98471.45
2022-07-31T17:29:38.279Z,98470.83
2022-07-31T17:32:06.403Z,98469.88
2022-07-31T17:34:35.530Z,98469.39
2022-07-31T17:37:04.655Z,98465.73
2022-07-31T17:39:33.136Z,98461.16
2022-07-31T17:42:00.944Z,98466.54
2022-07-31T17:44:28.713Z,98467.91
2022-07-31T17:46:58.076Z,98468.08
2022-07-31T17:49:27.484Z,98471.95
2022-07-31T17:51:57.746Z,98467.21
2022-07-31T17:54:31.612Z,98469.59
2022-07-31T17:57:00.093Z,98472.81
2022-07-31T17:59:31.162Z,98477.77
2022-07-31T18:02:07.990Z,98481.73
2022-07-31T18:04:39.909Z,98481.04
2022-07-31T18:07:08.292Z,98484.18
2022-07-31T18:09:37.114Z,98481.27
2022-07-31T18:12:05.385Z,98489.58
2022-07-31T18:14:33.289Z,98490.76
2022-07-31T18:17:01.323Z,98492.08
2022-07-31T18:19:29.332Z,98493.55
2022-07-31T18:21:57.771Z,98495.62
2022-07-31T18:24:25.623Z,98499.55
2022-07-31T18:26:56.238Z,98498.91
2022-07-31T18:29:24.104Z,98498.73
2022-07-31T18:31:51.903Z,98508.38
2022-07-31T18:34:19.777Z,98509.69
2022-07-31T18:36:54.418Z,98511.54
2022-07-31T18:39:24.560Z,98513.79
2022-07-31T18:41:52.715Z,98515.88
2022-07-31T18:44:22.059Z,98512.51
2022-07-31T18:46:50.024Z,98518.58
2022-07-31T18:50:58.774Z,98520.36
2022-07-31T18:52:06.181Z,98526.86
2022-07-31T18:54:34.255Z,98526.69
2022-07-31T18:57:03.548Z,98522.36
2022-07-31T18:59:31.589Z,98513.66
2022-07-31T19:01:59.959Z,98520.31
2022-07-31T19:04:28.200Z,98524.36
2022-07-31T19:06:56.025Z,98523.64
2022-07-31T19:09:25.410Z,98524.16
2022-07-31T19:12:03.721Z,98521.45
2022-07-31T19:14:36.038Z,98522.67
2022-07-31T19:17:04.053Z,98519.73
2022-07-31T19:19:49.570Z,98525.17
2022-07-31T19:22:22.163Z,98524.46
2022-07-31T19:24:50.760Z,98532.05
2022-07-31T19:27:20.033Z,98532.70
2022-07-31T19:29:47.849Z,98535.20
2022-07-31T19:32:15.665Z,98532.20
2022-07-31T19:34:47.997Z,98534.66
2022-07-31T19:37:18.223Z,98533.77
2022-07-31T19:39:47.166Z,98528.48
2022-07-31T19:42:15.044Z,98523.79
2022-07-31T19:44:43.662Z,98521.18
2022-07-31T19:47:11.462Z,98526.46
2022-07-31T19:49:41.058Z,98525.88
2022-07-31T19:52:09.288Z,98526.22
2022-07-31T19:54:40.451Z,98530.39
2022-07-31T19:57:08.486Z,98529.65
2022-07-31T19:59:36.439Z,98527.06
2022-07-31T20:02:04.658Z,98527.46
2022-07-31T20:04:32.710Z,98528.71
2022-07-31T20:07:00.426Z,98528.64
2022-07-31T20:09:28.274Z,98530.02
2022-07-31T20:11:55.992Z,98531.08
2022-07-31T20:14:23.767Z,98528.52
2022-07-31T20:16:51.768Z,98527.80
2022-07-31T20:19:19.486Z,98530.29
2022-07-31T20:21:47.264Z,98525.46
2022-07-31T20:24:19.942Z,98526.54
2022-07-31T20:26:47.734Z,98530.35
2022-07-31T20:29:15.580Z,98526.39
2022-07-31T20:31:43.362Z,98522.27
2022-07-31T20:34:11.104Z,98523.44
2022-07-31T20:36:41.734Z,98521.84
2022-07-31T20:39:09.650Z,98518.02
2022-07-31T20:41:37.700Z,98517.99
2022-07-31T20:44:05.585Z,98514.56
2022-07-31T20:46:33.423Z,98513.63
2022-07-31T20:49:01.522Z,98511.65
2022-07-31T20:51:29.508Z,98510.40
2022-07-31T20:53:58.638Z,98517.62
2022-07-31T20:56:26.988Z,98511.64
2022-07-31T20:58:54.905Z,98517.88
2022-07-31T21:01:23.135Z,98517.34
2022-07-31T21:03:51.143Z,98517.29
2022-07-31T21:06:21.052Z,98516.77
2022-07-31T21:08:49.290Z,98514.98
2022-07-31T21:11:17.214Z,98516.41
2022-07-31T21:13:45.577Z,98522.05
2022-07-31T21:16:13.456Z,98519.50
2022-07-31T21:18:43.515Z,98523.29
2022-07-31T21:21:11.958Z,98519.15
2022-07-31T21:23:39.923Z,98519.38
2022-07-31T21:26:08.217Z,98515.98
2022-07-31T21:28:39.770Z,98522.46
2022-07-31T21:31:07.771Z,98518.08
2022-07-31T21:33:36.017Z,98517.33
2022-07-31T21:36:05.968Z,98519.95
2022-07-31T21:38:36.249Z,98519.44
2022-07-31T21:41:04.287Z,98522.13
2022-07-31T21:43:37.218Z,98520.41
2022-07-31T21:46:22.674Z,98521.00
2022-07-31T21:48:51.674Z,98525.77
2022-07-31T21:51:19.606Z,98520.88
2022-07-31T21:53:47.537Z,98525.04
2022-07-31T21:56:16.415Z,98520.45
2022-07-31T21:58:44.731Z,98523.58
2022-07-31T22:01:15.050Z,98522.34
2022-07-31T22:03:46.051Z,98524.20
2022-07-31T22:06:32.505Z,98529.48
2022-07-31T22:09:00.401Z,98524.52
2022-07-31T22:11:28.235Z,98525.23
2022-07-31T22:13:56.024Z,98523.48
2022-07-31T22:16:23.756Z,98524.60
2022-07-31T22:18:51.957Z,98519.97
2022-07-31T22:21:19.773Z,98523.84
2022-07-31T22:23:47.790Z,98519.20
2022-07-31T22:26:15.815Z,98525.48
2022-07-31T22:28:44.267Z,98526.02
2022-07-31T22:31:12.318Z,98528.59
2022-07-31T22:33:40.375Z,98527.52
2022-07-31T22:36:08.627Z,98525.54
2022-07-31T22:38:38.127Z,98524.70
2022-07-31T22:41:06.188Z,98528.63
2022-07-31T22:44:11.014Z,98527.77
2022-07-31T22:46:22.048Z,98526.08
2022-07-31T22:48:50.669Z,98525.07
2022-07-31T22:51:18.782Z,98522.10
2022-07-31T22:53:48.966Z,98521.80
2022-07-31T22:56:18.177Z,98525.85
2022-07-31T22:58:46.446Z,98523.13
2022-07-31T23:01:14.174Z,98521.95
2022-07-31T23:03:44.022Z,98524.73
2022-07-31T23:06:30.597Z,98521.25
2022-07-31T23:09:00.765Z,98522.80
2022-07-31T23:11:29.028Z,98517.84
2022-07-31T23:13:59.180Z,98518.02
2022-07-31T23:16:27.104Z,98519.33
2022-07-31T23:18:55.046Z,98522.80
2022-07-31T23:21:23.010Z,98520.41
2022-07-31T23:23:51.009Z,98524.15
2022-07-31T23:26:19.770Z,98522.00
2022-07-31T23:28:48.565Z,98518.38
2022-07-31T23:31:17.254Z,98522.35
2022-07-31T23:33:46.859Z,98527.80
2022-07-31T23:36:15.730Z,98520.11
2022-07-31T23:38:44.531Z,98527.99
2022-07-31T23:41:12.873Z,98531.77
2022-07-31T23:43:41.530Z,98530.73
2022-07-31T23:46:26.704Z,98533.52
2022-07-31T23:48:55.999Z,98538.25
2022-07-31T23:51:24.138Z,98536.01
2022-07-31T23:53:52.397Z,98536.35
2022-07-31T23:56:20.445Z,98534.23
2022-07-31T23:58:48.406Z,98535.43
